createdAt,value
2023-02-13T00:00:56.681Z,4.25
2023-02-13T00:03:24.247Z,3.20
2023-02-13T00:05:51.940Z,3.60
2023-02-13T00:08:19.390Z,2.70
2023-02-13T00:10:48.260Z,4.28
2023-02-13T00:13:16.310Z,2.60
2023-02-13T00:15:44.033Z,3.35
2023-02-13T00:18:11.524Z,5.75
2023-02-13T00:20:38.965Z,2.63
2023-02-13T00:23:06.499Z,6.97
2023-02-13T00:25:34.007Z,6.85
2023-02-13T00:28:01.580Z,3.38
2023-02-13T00:30:29.215Z,4.68
2023-02-13T00:32:56.617Z,4.65
2023-02-13T00:35:25.457Z,4.05
2023-02-13T00:37:53.377Z,5.05
2023-02-13T00:40:25.267Z,4.30
2023-02-13T00:42:52.975Z,4.03
2023-02-13T00:45:20.456Z,2.53
2023-02-13T00:47:48.059Z,6.15
2023-02-13T00:50:15.798Z,2.80
2023-02-13T00:52:43.329Z,4.38
2023-02-13T00:55:10.889Z,4.63
2023-02-13T00:57:38.448Z,4.35
2023-02-13T01:00:06.705Z,2.60
2023-02-13T01:02:36.291Z,4.15
2023-02-13T01:05:04.004Z,2.55
2023-02-13T01:07:31.436Z,2.38
2023-02-13T01:09:58.908Z,6.82
2023-02-13T01:12:28.008Z,3.97
2023-02-13T01:14:56.167Z,6.57
2023-02-13T01:17:23.952Z,2.95
2023-02-13T01:19:51.484Z,3.80
2023-02-13T01:22:20.455Z,3.92
2023-02-13T01:24:49.857Z,4.90
2023-02-13T01:27:18.138Z,2.58
2023-02-13T01:29:45.695Z,4.85
2023-02-13T01:32:13.526Z,3.10
2023-02-13T01:34:41.127Z,2.95
2023-02-13T01:37:08.617Z,3.25
2023-02-13T01:39:36.258Z,2.95
2023-02-13T01:42:04.328Z,10.05
2023-02-13T01:45:22.749Z,3.72
2023-02-13T01:47:55.266Z,2.75
2023-02-13T01:50:37.189Z,2.70
2023-02-13T01:53:13.597Z,6.70
2023-02-13T01:55:49.266Z,4.95
2023-02-13T01:58:22.912Z,4.18
2023-02-13T02:00:50.705Z,4.82
2023-02-13T02:03:25.062Z,6.10
2023-02-13T02:05:55.728Z,3.25
2023-02-13T02:08:24.574Z,3.20
2023-02-13T02:10:57.135Z,2.58
2023-02-13T02:13:26.658Z,4.20
2023-02-13T02:15:54.757Z,4.75
2023-02-13T02:18:24.207Z,5.95
2023-02-13T02:21:09.990Z,5.45
2023-02-13T02:23:52.614Z,3.92
2023-02-13T02:26:47.219Z,3.65
2023-02-13T02:29:34.350Z,9.80
2023-02-13T02:34:47.258Z,3.15
2023-02-13T02:37:35.328Z,6.40
2023-02-13T02:40:23.070Z,5.22
2023-02-13T02:43:19.759Z,3.53
2023-02-13T02:46:06.167Z,4.90
2023-02-13T02:49:20.353Z,5.00
2023-02-13T02:52:05.225Z,7.68
2023-02-13T02:55:11.152Z,6.68
2023-02-13T02:58:28.425Z,2.22
2023-02-13T03:01:19.274Z,2.83
2023-02-13T03:04:07.603Z,2.38
2023-02-13T03:06:44.619Z,3.03
2023-02-13T03:09:36.158Z,4.35
2023-02-13T03:12:22.610Z,5.03
2023-02-13T03:17:51.321Z,4.35
2023-02-13T03:21:17.563Z,3.08
2023-02-13T03:24:04.147Z,4.05
2023-02-13T03:26:50.189Z,4.20
2023-02-13T03:30:07.387Z,3.30
2023-02-13T03:32:57.018Z,4.07
2023-02-13T03:36:17.168Z,2.97
2023-02-13T03:38:48.311Z,4.50
2023-02-13T03:41:38.646Z,5.75
2023-02-13T03:44:27.126Z,4.88
2023-02-13T03:46:58.376Z,4.28
2023-02-13T03:49:47.818Z,3.72
2023-02-13T03:52:31.249Z,4.35
2023-02-13T03:55:26.098Z,3.72
2023-02-13T03:58:16.973Z,3.83
2023-02-13T04:00:50.792Z,2.03
2023-02-13T04:03:23.868Z,4.10
2023-02-13T04:05:57.884Z,2.10
2023-02-13T04:08:25.412Z,2.70
2023-02-13T04:11:15.457Z,7.10
2023-02-13T04:13:53.049Z,4.00
2023-02-13T04:16:44.404Z,3.00
2023-02-13T04:19:12.824Z,2.85
2023-02-13T04:21:40.958Z,3.72
2023-02-13T04:24:09.524Z,6.45
2023-02-13T04:26:39.921Z,3.92
2023-02-13T04:29:08.450Z,3.45
2023-02-13T04:31:36.312Z,5.00
2023-02-13T04:34:03.894Z,7.20
2023-02-13T04:36:31.573Z,3.92
2023-02-13T04:38:59.080Z,3.50
2023-02-13T04:41:26.607Z,6.32
2023-02-13T04:43:54.071Z,5.75
2023-02-13T04:46:21.570Z,4.75
2023-02-13T04:48:49.234Z,3.90
2023-02-13T04:51:16.655Z,2.72
2023-02-13T04:53:44.215Z,2.80
2023-02-13T04:56:11.663Z,5.30
2023-02-13T04:58:39.236Z,3.08
2023-02-13T05:01:14.479Z,3.75
2023-02-13T05:03:42.337Z,2.53
2023-02-13T05:06:09.948Z,3.88
2023-02-13T05:08:37.651Z,7.30
2023-02-13T05:11:05.345Z,3.25
2023-02-13T05:13:33.282Z,4.30
2023-02-13T05:16:00.884Z,3.72
2023-02-13T05:18:28.354Z,1.73
2023-02-13T05:21:14.576Z,2.53
2023-02-13T05:23:42.098Z,2.55
2023-02-13T05:26:09.488Z,3.88
2023-02-13T05:28:55.497Z,4.18
2023-02-13T05:31:23.106Z,2.28
2023-02-13T05:33:50.619Z,4.78
2023-02-13T05:36:18.112Z,3.47
2023-02-13T05:38:45.529Z,2.10
2023-02-13T05:41:13.672Z,2.67
2023-02-13T05:43:41.151Z,3.75
2023-02-13T05:46:09.959Z,4.00
2023-02-13T05:48:37.468Z,2.72
2023-02-13T05:51:06.365Z,3.50
2023-02-13T05:53:37.664Z,3.50
2023-02-13T05:56:06.653Z,2.58
2023-02-13T05:58:34.917Z,3.25
2023-02-13T06:01:02.953Z,2.80
2023-02-13T06:03:31.622Z,4.35
2023-02-13T06:05:59.653Z,3.78
2023-02-13T06:08:27.193Z,4.20
2023-02-13T06:10:54.823Z,2.90
2023-02-13T06:13:22.362Z,5.18
2023-02-13T06:15:50.967Z,3.10
2023-02-13T06:18:18.648Z,3.72
2023-02-13T06:20:46.209Z,5.25
2023-02-13T06:23:14.094Z,4.18
2023-02-13T06:25:41.944Z,2.92
2023-02-13T06:28:09.662Z,3.28
2023-02-13T06:30:37.275Z,3.25
2023-02-13T06:33:04.789Z,3.90
2023-02-13T06:35:32.385Z,5.20
2023-02-13T06:37:59.858Z,4.47
2023-02-13T06:40:27.320Z,2.88
2023-02-13T06:42:54.779Z,2.97
2023-02-13T06:45:22.338Z,3.40
2023-02-13T06:47:50.290Z,2.70
2023-02-13T06:50:18.787Z,5.65
2023-02-13T06:52:48.200Z,4.32
2023-02-13T06:55:16.285Z,3.47
2023-02-13T06:57:44.757Z,2.92
2023-02-13T07:00:13.998Z,5.05
2023-02-13T07:02:43.217Z,3.55
2023-02-13T07:05:11.615Z,3.10
2023-02-13T07:07:41.116Z,3.22
2023-02-13T07:10:12.867Z,3.92
2023-02-13T07:12:40.950Z,2.47
2023-02-13T07:15:08.817Z,3.55
2023-02-13T07:17:36.473Z,2.58
2023-02-13T07:20:05.676Z,4.10
2023-02-13T07:22:33.476Z,3.72
2023-02-13T07:25:01.538Z,6.07
2023-02-13T07:27:29.477Z,2.95
2023-02-13T07:29:57.774Z,3.75
2023-02-13T07:32:26.309Z,9.73
2023-02-13T07:35:01.763Z,6.63
2023-02-13T07:37:31.434Z,4.40
2023-02-13T07:39:59.069Z,5.43
2023-02-13T07:42:26.648Z,4.53
2023-02-13T07:44:54.323Z,2.90
2023-02-13T07:47:21.920Z,5.97
2023-02-13T07:49:49.410Z,4.63
2023-02-13T07:52:16.910Z,5.47
2023-02-13T07:54:47.649Z,4.90
2023-02-13T07:57:16.813Z,5.30
2023-02-13T07:59:44.432Z,4.18
2023-02-13T08:02:14.413Z,8.43
2023-02-13T08:04:46.571Z,8.27
2023-02-13T08:07:15.406Z,10.98
2023-02-13T08:10:04.097Z,8.18
2023-02-13T08:12:34.858Z,10.25
2023-02-13T08:15:02.717Z,11.52
2023-02-13T08:17:30.239Z,10.75
2023-02-13T08:19:58.201Z,11.13
2023-02-13T08:22:25.784Z,11.18
2023-02-13T08:24:53.314Z,12.23
2023-02-13T08:27:20.839Z,10.00
2023-02-13T08:29:50.813Z,8.98
2023-02-13T08:32:18.544Z,9.55
2023-02-13T08:34:46.245Z,14.35
2023-02-13T08:37:13.911Z,10.57
2023-02-13T08:39:43.707Z,11.02
2023-02-13T08:42:15.160Z,15.43
2023-02-13T08:44:44.451Z,17.98
2023-02-13T08:47:12.062Z,17.02
2023-02-13T08:49:40.799Z,19.30
2023-02-13T08:52:08.380Z,15.10
2023-02-13T08:54:38.620Z,23.15
2023-02-13T08:57:06.182Z,18.42
2023-02-13T08:59:33.842Z,18.13
2023-02-13T09:02:01.518Z,19.38
2023-02-13T09:04:29.236Z,22.17
2023-02-13T09:06:57.000Z,20.67
2023-02-13T09:09:24.576Z,19.38
2023-02-13T09:11:52.548Z,20.27
2023-02-13T09:14:19.993Z,19.40
2023-02-13T09:16:47.616Z,21.67
2023-02-13T09:19:15.588Z,23.42
2023-02-13T09:21:43.141Z,20.35
2023-02-13T09:24:11.380Z,24.42
2023-02-13T09:26:39.017Z,21.45
2023-02-13T09:29:06.538Z,25.98
2023-02-13T09:31:34.290Z,21.80
2023-02-13T09:34:01.796Z,22.63
2023-02-13T09:36:29.404Z,21.63
2023-02-13T09:38:58.166Z,24.50
2023-02-13T09:41:34.306Z,24.30
2023-02-13T09:44:06.547Z,21.77
2023-02-13T09:46:39.924Z,22.63
2023-02-13T09:49:19.686Z,24.88
2023-02-13T09:51:55.697Z,22.13
2023-02-13T09:57:15.259Z,26.15
2023-02-13T09:59:57.242Z,25.60
2023-02-13T10:02:54.796Z,19.25
2023-02-13T10:05:58.446Z,19.52
2023-02-13T10:08:41.746Z,27.85
2023-02-13T10:11:35.355Z,21.92
2023-02-13T10:14:23.165Z,23.02
2023-02-13T10:17:33.209Z,28.55
2023-02-13T10:20:07.087Z,25.77
2023-02-13T10:22:42.978Z,23.00
2023-02-13T10:25:25.288Z,23.55
2023-02-13T10:28:05.929Z,20.85
2023-02-13T10:30:47.507Z,24.10
2023-02-13T10:33:36.707Z,24.83
2023-02-13T10:36:06.952Z,22.38
2023-02-13T10:38:43.381Z,25.15
2023-02-13T10:41:26.421Z,27.08
2023-02-13T10:43:57.051Z,26.42
2023-02-13T10:46:46.285Z,22.55
2023-02-13T10:49:20.216Z,27.48
2023-02-13T10:52:14.983Z,24.55
2023-02-13T10:54:57.452Z,28.55
2023-02-13T10:57:34.084Z,25.90
2023-02-13T11:00:31.996Z,22.70
2023-02-13T11:03:00.261Z,24.05
2023-02-13T11:05:41.651Z,21.88
2023-02-13T11:08:35.277Z,23.17
2023-02-13T11:11:02.855Z,25.13
2023-02-13T11:13:30.746Z,28.15
2023-02-13T11:16:13.958Z,23.88
2023-02-13T11:18:48.918Z,23.48
2023-02-13T11:21:34.452Z,23.88
2023-02-13T11:24:03.237Z,23.03
2023-02-13T11:26:36.772Z,23.55
2023-02-13T11:29:20.992Z,21.60
2023-02-13T11:32:04.339Z,23.50
2023-02-13T11:34:34.054Z,22.50
2023-02-13T11:37:13.511Z,20.08
2023-02-13T11:39:43.142Z,21.20
2023-02-13T11:42:34.755Z,21.83
2023-02-13T11:45:06.588Z,23.20
2023-02-13T11:47:40.093Z,24.50
2023-02-13T11:50:26.034Z,22.92
2023-02-13T11:53:06.340Z,19.40
2023-02-13T11:55:38.254Z,20.63
2023-02-13T11:58:12.016Z,21.52
2023-02-13T12:00:41.661Z,19.95
2023-02-13T12:03:21.825Z,22.27
2023-02-13T12:06:06.716Z,21.17
2023-02-13T12:08:38.481Z,18.45
2023-02-13T12:11:39.629Z,16.42
2023-02-13T12:14:14.133Z,22.50
2023-02-13T12:16:43.784Z,18.23
2023-02-13T12:19:42.645Z,20.80
2023-02-13T12:22:22.296Z,18.13
2023-02-13T12:25:19.030Z,20.73
2023-02-13T12:28:08.458Z,21.48
2023-02-13T12:30:45.239Z,22.48
2023-02-13T12:33:37.120Z,21.40
2023-02-13T12:36:32.564Z,23.23
2023-02-13T12:39:26.373Z,23.50
2023-02-13T12:42:03.224Z,20.60
2023-02-13T12:44:42.891Z,25.63
2023-02-13T12:47:31.488Z,22.88
2023-02-13T12:50:01.802Z,24.27
2023-02-13T12:53:07.755Z,22.00
2023-02-13T12:55:47.291Z,18.25
2023-02-13T12:58:39.334Z,22.15
2023-02-13T13:01:36.588Z,21.20
2023-02-13T13:04:23.012Z,19.25
2023-02-13T13:06:57.063Z,20.20
2023-02-13T13:09:45.961Z,20.88
2023-02-13T13:12:25.731Z,19.80
2023-02-13T13:15:01.759Z,17.45
2023-02-13T13:20:14.610Z,19.55
2023-02-13T13:22:53.736Z,17.67
2023-02-13T13:25:33.893Z,18.77
2023-02-13T13:28:05.858Z,18.35
2023-02-13T13:30:36.781Z,18.75
2023-02-13T13:33:18.171Z,20.27
2023-02-13T13:36:01.023Z,16.98
2023-02-13T13:38:54.142Z,19.00
2023-02-13T13:41:49.415Z,18.30
2023-02-13T13:44:31.950Z,22.50
2023-02-13T13:47:32.475Z,20.40
2023-02-13T13:50:02.183Z,17.00
2023-02-13T13:52:34.090Z,23.77
2023-02-13T13:55:04.503Z,20.73
2023-02-13T13:57:41.169Z,20.35
2023-02-13T14:00:08.689Z,21.77
2023-02-13T14:02:42.256Z,21.23
2023-02-13T14:05:29.214Z,19.08
2023-02-13T14:08:03.705Z,21.48
2023-02-13T14:10:31.314Z,19.63
2023-02-13T14:12:59.816Z,18.77
2023-02-13T14:15:39.364Z,23.00
2023-02-13T14:18:17.855Z,17.65
2023-02-13T14:20:51.121Z,17.27
2023-02-13T14:23:33.158Z,21.60
2023-02-13T14:26:41.165Z,17.05
2023-02-13T14:29:11.728Z,19.08
2023-02-13T14:32:26.757Z,19.38
2023-02-13T14:35:19.170Z,17.33
2023-02-13T14:37:57.729Z,19.33
2023-02-13T14:40:42.276Z,21.42
2023-02-13T14:43:32.886Z,20.15
2023-02-13T14:46:19.303Z,18.45
2023-02-13T14:48:51.621Z,17.60
2023-02-13T14:51:37.095Z,17.30
2023-02-13T14:54:16.858Z,15.55
2023-02-13T14:56:49.926Z,14.85
2023-02-13T14:59:21.115Z,17.13
2023-02-13T15:01:53.985Z,17.70
2023-02-13T15:04:35.619Z,15.18
2023-02-13T15:07:05.738Z,20.05
2023-02-13T15:09:40.425Z,21.48
2023-02-13T15:12:28.022Z,20.98
2023-02-13T15:14:55.693Z,17.27
2023-02-13T15:17:26.857Z,18.80
2023-02-13T15:20:04.663Z,17.65
2023-02-13T15:22:39.327Z,19.55
2023-02-13T15:25:09.353Z,15.93
2023-02-13T15:27:43.238Z,17.92
2023-02-13T15:30:24.197Z,20.60
2023-02-13T15:32:57.523Z,18.90
2023-02-13T15:35:37.210Z,16.15
2023-02-13T15:38:28.028Z,22.73
2023-02-13T15:41:02.812Z,18.58
2023-02-13T15:43:43.792Z,22.83
2023-02-13T15:46:35.504Z,20.45
2023-02-13T15:49:08.941Z,18.70
2023-02-13T15:51:36.697Z,19.58
2023-02-13T15:54:07.475Z,21.65
2023-02-13T15:56:35.524Z,19.70
2023-02-13T15:59:04.165Z,21.70
2023-02-13T16:01:32.956Z,22.77
2023-02-13T16:04:05.313Z,20.23
2023-02-13T16:06:34.235Z,22.48
2023-02-13T16:09:02.575Z,18.23
2023-02-13T16:11:39.583Z,25.10
2023-02-13T16:14:21.157Z,22.77
2023-02-13T16:16:53.628Z,22.17
2023-02-13T16:19:34.839Z,25.75
2023-02-13T16:22:07.545Z,18.90
2023-02-13T16:24:36.932Z,24.17
2023-02-13T16:27:04.504Z,20.60
2023-02-13T16:29:32.183Z,23.10
2023-02-13T16:32:07.227Z,23.48
2023-02-13T16:34:34.822Z,21.30
2023-02-13T16:37:02.297Z,21.80
2023-02-13T16:39:33.129Z,19.77
2023-02-13T16:42:01.628Z,22.02
2023-02-13T16:44:33.090Z,28.08
2023-02-13T16:47:04.505Z,27.63
2023-02-13T16:49:37.579Z,24.77
2023-02-13T16:52:12.444Z,25.33
2023-02-13T16:54:49.405Z,26.83
2023-02-13T16:57:24.222Z,25.45
2023-02-13T16:59:56.295Z,27.92
2023-02-13T17:02:27.651Z,23.70
2023-02-13T17:04:59.880Z,30.50
2023-02-13T17:07:30.525Z,27.33
2023-02-13T17:10:02.146Z,28.90
2023-02-13T17:12:31.513Z,27.40
2023-02-13T17:14:59.873Z,30.85
2023-02-13T17:17:30.284Z,30.38
2023-02-13T17:19:58.871Z,24.30
2023-02-13T17:22:31.995Z,29.00
2023-02-13T17:25:01.134Z,33.03
2023-02-13T17:27:28.682Z,27.10
2023-02-13T17:29:56.303Z,33.38
2023-02-13T17:32:26.799Z,26.73
2023-02-13T17:34:54.667Z,29.75
2023-02-13T17:37:27.910Z,27.40
2023-02-13T17:39:55.973Z,33.03
2023-02-13T17:42:28.923Z,29.73
2023-02-13T17:44:58.433Z,30.38
2023-02-13T17:47:26.589Z,24.77
2023-02-13T17:50:02.059Z,24.13
2023-02-13T17:52:35.189Z,31.65
2023-02-13T17:55:02.734Z,30.38
2023-02-13T17:57:30.340Z,27.95
2023-02-13T17:59:59.298Z,28.55
2023-02-13T18:02:27.986Z,25.92
2023-02-13T18:04:55.609Z,28.88
2023-02-13T18:07:23.212Z,28.55
2023-02-13T18:09:50.813Z,30.02
2023-02-13T18:12:24.228Z,29.92
2023-02-13T18:14:53.050Z,27.50
2023-02-13T18:17:20.995Z,31.98
2023-02-13T18:19:50.488Z,21.60
2023-02-13T18:22:18.206Z,27.80
2023-02-13T18:24:45.762Z,26.88
2023-02-13T18:27:13.304Z,32.70
2023-02-13T18:29:41.110Z,30.08
2023-02-13T18:32:10.782Z,33.13
2023-02-13T18:34:39.616Z,29.75
2023-02-13T18:37:08.612Z,32.63
2023-02-13T18:39:36.145Z,32.47
2023-02-13T18:42:03.794Z,32.08
2023-02-13T18:44:32.057Z,26.38
2023-02-13T18:47:00.511Z,27.92
2023-02-13T18:49:28.153Z,26.48
2023-02-13T18:51:56.095Z,31.63
2023-02-13T18:54:23.691Z,34.40
2023-02-13T18:56:51.279Z,34.00
2023-02-13T18:59:18.857Z,31.73
2023-02-13T19:01:46.471Z,31.13
2023-02-13T19:04:14.143Z,30.00
2023-02-13T19:06:43.481Z,41.53
2023-02-13T19:09:11.520Z,32.50
2023-02-13T19:11:39.540Z,27.80
2023-02-13T19:14:07.659Z,36.42
2023-02-13T19:16:35.839Z,33.22
2023-02-13T19:19:06.687Z,34.50
2023-02-13T19:21:36.839Z,27.40
2023-02-13T19:24:07.961Z,29.27
2023-02-13T19:26:35.977Z,34.70
2023-02-13T19:29:04.164Z,31.63
2023-02-13T19:31:32.957Z,30.13
2023-02-13T19:34:02.677Z,37.60
2023-02-13T19:36:30.339Z,31.25
2023-02-13T19:39:03.993Z,37.45
2023-02-13T19:41:32.935Z,38.55
2023-02-13T19:44:05.352Z,34.92
2023-02-13T19:46:33.210Z,38.00
2023-02-13T19:49:01.027Z,32.35
2023-02-13T19:51:30.906Z,37.25
2023-02-13T19:54:01.237Z,37.42
2023-02-13T19:56:30.913Z,30.42
2023-02-13T19:58:58.677Z,33.67
2023-02-13T20:01:28.911Z,37.78
2023-02-13T20:03:57.225Z,39.13
2023-02-13T20:06:31.196Z,38.75
2023-02-13T20:09:01.820Z,32.10
2023-02-13T20:11:29.479Z,44.20
2023-02-13T20:14:00.808Z,42.33
2023-02-13T20:16:33.136Z,29.77
2023-02-13T20:19:03.699Z,35.42
2023-02-13T20:21:31.622Z,33.05
2023-02-13T20:23:59.980Z,46.60
2023-02-13T20:26:27.552Z,34.05
2023-02-13T20:28:58.530Z,43.15
2023-02-13T20:31:26.689Z,37.33
2023-02-13T20:33:54.511Z,47.42
2023-02-13T20:36:25.083Z,39.15
2023-02-13T20:38:56.053Z,44.75
2023-02-13T20:41:26.499Z,36.42
2023-02-13T20:44:01.206Z,44.97
2023-02-13T20:46:33.596Z,45.78
2023-02-13T20:49:01.648Z,47.70
2023-02-13T20:51:30.758Z,40.40
2023-02-13T20:53:59.940Z,43.58
2023-02-13T20:56:28.586Z,42.40
2023-02-13T20:58:58.866Z,45.95
2023-02-13T21:01:29.557Z,36.05
2023-02-13T21:03:57.564Z,40.60
2023-02-13T21:06:30.940Z,34.17
2023-02-13T21:09:02.659Z,34.80
2023-02-13T21:11:30.590Z,35.38
2023-02-13T21:13:58.480Z,40.38
2023-02-13T21:16:28.774Z,41.00
2023-02-13T21:19:00.367Z,35.00
2023-02-13T21:21:31.815Z,36.60
2023-02-13T21:24:03.735Z,37.05
2023-02-13T21:26:33.081Z,39.13
2023-02-13T21:29:00.795Z,35.28
2023-02-13T21:31:31.772Z,39.40
2023-02-13T21:34:03.228Z,34.20
2023-02-13T21:36:32.016Z,33.28
2023-02-13T21:39:00.188Z,31.58
2023-02-13T21:41:28.217Z,37.95
2023-02-13T21:43:55.778Z,31.23
2023-02-13T21:46:28.620Z,29.83
2023-02-13T21:49:01.343Z,25.98
2023-02-13T21:51:31.357Z,29.88
2023-02-13T21:53:59.193Z,29.88
2023-02-13T21:56:30.278Z,29.40
2023-02-13T21:58:58.645Z,28.33
2023-02-13T22:01:29.861Z,30.48
2023-02-13T22:04:01.223Z,31.65
2023-02-13T22:06:30.752Z,34.80
2023-02-13T22:09:04.044Z,28.63
2023-02-13T22:11:33.144Z,30.98
2023-02-13T22:14:02.872Z,30.30
2023-02-13T22:16:32.589Z,29.67
2023-02-13T22:19:00.964Z,35.60
2023-02-13T22:21:31.005Z,36.75
2023-02-13T22:23:59.176Z,30.85
2023-02-13T22:26:32.272Z,27.88
2023-02-13T22:29:05.124Z,24.85
2023-02-13T22:31:33.386Z,28.02
2023-02-13T22:34:04.691Z,36.25
2023-02-13T22:36:35.199Z,32.05
2023-02-13T22:39:02.856Z,31.77
2023-02-13T22:41:31.445Z,38.08
2023-02-13T22:43:59.069Z,33.15
2023-02-13T22:46:30.002Z,36.95
2023-02-13T22:48:58.787Z,40.92
2023-02-13T22:51:31.349Z,37.42
2023-02-13T22:53:59.807Z,42.35
2023-02-13T22:56:28.627Z,41.22
2023-02-13T22:58:56.688Z,35.95
2023-02-13T23:01:26.596Z,39.30
2023-02-13T23:03:55.214Z,43.80
2023-02-13T23:06:23.520Z,42.42
2023-02-13T23:08:54.598Z,39.50
2023-02-13T23:11:44.070Z,42.90
2023-02-13T23:14:11.805Z,39.33
2023-02-13T23:16:58.879Z,39.78
2023-02-13T23:19:27.762Z,31.00
2023-02-13T23:21:55.721Z,40.38
2023-02-13T23:24:23.937Z,41.80
2023-02-13T23:26:51.668Z,39.38
2023-02-13T23:29:19.320Z,47.75
2023-02-13T23:31:46.891Z,38.88
2023-02-13T23:34:14.594Z,38.35
2023-02-13T23:36:42.048Z,28.02
2023-02-13T23:39:09.662Z,35.33
2023-02-13T23:41:37.207Z,40.95
2023-02-13T23:44:04.830Z,35.38
2023-02-13T23:46:32.512Z,34.30
2023-02-13T23:49:00.189Z,37.00
2023-02-13T23:51:27.603Z,32.47
2023-02-13T23:53:57.387Z,38.00
2023-02-13T23:56:25.752Z,28.67
2023-02-13T23:58:55.644Z,32.17
